sensor_id;sensor_type;location;lat;lon;timestamp;P1;durP1;ratioP1;P2;durP2;ratioP2
66139;SDS011;52945;51.908;8.364;2023-05-23T00:02:21;19.98;;;11.00;;
66139;SDS011;52945;51.908;8.364;2023-05-23T00:05:21;21.27;;;10.57;;
66139;SDS011;52945;51.908;8.364;2023-05-23T00:11:23;19.23;;;9.90;;
66139;SDS011;52945;51.908;8.364;2023-05-23T00:14:26;23.02;;;11.35;;
66139;SDS011;52945;51.908;8.364;2023-05-23T00:17:26;20.67;;;11.13;;
66139;SDS011;52945;51.908;8.364;2023-05-23T00:20:27;20.92;;;11.35;;
66139;SDS011;52945;51.908;8.364;2023-05-23T00:23:29;18.48;;;10.93;;
66139;SDS011;52945;51.908;8.364;2023-05-23T00:26:32;24.00;;;11.52;;
66139;SDS011;52945;51.908;8.364;2023-05-23T00:29:33;21.95;;;11.95;;
66139;SDS011;52945;51.908;8.364;2023-05-23T00:32:33;19.13;;;10.43;;
66139;SDS011;52945;51.908;8.364;2023-05-23T00:35:34;19.45;;;10.15;;
66139;SDS011;52945;51.908;8.364;2023-05-23T00:41:35;18.35;;;9.10;;
66139;SDS011;52945;51.908;8.364;2023-05-23T00:44:36;18.73;;;10.75;;
66139;SDS011;52945;51.908;8.364;2023-05-23T00:47:38;18.80;;;10.07;;
66139;SDS011;52945;51.908;8.364;2023-05-23T00:50:40;17.02;;;9.35;;
66139;SDS011;52945;51.908;8.364;2023-05-23T00:53:40;17.45;;;9.13;;
66139;SDS011;52945;51.908;8.364;2023-05-23T00:56:42;18.75;;;9.68;;
66139;SDS011;52945;51.908;8.364;2023-05-23T00:59:43;17.40;;;8.43;;
66139;SDS011;52945;51.908;8.364;2023-05-23T01:02:46;16.73;;;8.23;;
66139;SDS011;52945;51.908;8.364;2023-05-23T01:05:50;13.60;;;7.97;;
66139;SDS011;52945;51.908;8.364;2023-05-23T01:08:51;12.98;;;7.10;;
66139;SDS011;52945;51.908;8.364;2023-05-23T01:12:36;12.60;;;7.35;;
66139;SDS011;52945;51.908;8.364;2023-05-23T01:15:28;14.95;;;7.65;;
66139;SDS011;52945;51.908;8.364;2023-05-23T01:18:42;15.25;;;7.45;;
66139;SDS011;52945;51.908;8.364;2023-05-23T01:21:51;15.50;;;6.78;;
66139;SDS011;52945;51.908;8.364;2023-05-23T01:24:54;12.60;;;6.72;;
66139;SDS011;52945;51.908;8.364;2023-05-23T01:28:06;13.95;;;7.10;;
66139;SDS011;52945;51.908;8.364;2023-05-23T01:31:09;11.52;;;6.03;;
66139;SDS011;52945;51.908;8.364;2023-05-23T01:34:13;11.48;;;6.43;;
66139;SDS011;52945;51.908;8.364;2023-05-23T01:37:17;12.95;;;6.70;;
66139;SDS011;52945;51.908;8.364;2023-05-23T01:40:18;10.18;;;5.65;;
66139;SDS011;52945;51.908;8.364;2023-05-23T01:43:20;10.85;;;6.07;;
66139;SDS011;52945;51.908;8.364;2023-05-23T01:46:21;13.75;;;6.07;;
66139;SDS011;52945;51.908;8.364;2023-05-23T01:49:23;13.25;;;6.43;;
66139;SDS011;52945;51.908;8.364;2023-05-23T01:52:23;10.45;;;5.65;;
66139;SDS011;52945;51.908;8.364;2023-05-23T01:55:25;10.98;;;6.38;;
66139;SDS011;52945;51.908;8.364;2023-05-23T01:58:26;10.32;;;5.72;;
66139;SDS011;52945;51.908;8.364;2023-05-23T02:01:27;9.70;;;5.57;;
66139;SDS011;52945;51.908;8.364;2023-05-23T02:04:28;11.00;;;6.07;;
66139;SDS011;52945;51.908;8.364;2023-05-23T02:10:29;10.15;;;5.78;;
66139;SDS011;52945;51.908;8.364;2023-05-23T02:13:30;10.75;;;5.90;;
66139;SDS011;52945;51.908;8.364;2023-05-23T02:16:31;10.40;;;5.45;;
66139;SDS011;52945;51.908;8.364;2023-05-23T02:22:32;10.93;;;5.95;;
66139;SDS011;52945;51.908;8.364;2023-05-23T02:25:33;13.63;;;7.25;;
66139;SDS011;52945;51.908;8.364;2023-05-23T02:28:33;10.82;;;6.20;;
66139;SDS011;52945;51.908;8.364;2023-05-23T02:31:35;11.50;;;5.95;;
66139;SDS011;52945;51.908;8.364;2023-05-23T02:37:37;12.05;;;6.15;;
66139;SDS011;52945;51.908;8.364;2023-05-23T02:40:37;14.40;;;6.53;;
66139;SDS011;52945;51.908;8.364;2023-05-23T02:43:38;14.10;;;6.75;;
66139;SDS011;52945;51.908;8.364;2023-05-23T02:46:39;13.50;;;5.97;;
66139;SDS011;52945;51.908;8.364;2023-05-23T02:49:39;19.10;;;8.13;;
66139;SDS011;52945;51.908;8.364;2023-05-23T02:52:40;12.95;;;6.63;;
66139;SDS011;52945;51.908;8.364;2023-05-23T02:58:42;14.07;;;6.00;;
66139;SDS011;52945;51.908;8.364;2023-05-23T03:01:42;12.48;;;6.25;;
66139;SDS011;52945;51.908;8.364;2023-05-23T03:04:43;13.15;;;6.38;;
66139;SDS011;52945;51.908;8.364;2023-05-23T03:07:43;13.23;;;6.47;;
66139;SDS011;52945;51.908;8.364;2023-05-23T03:13:45;12.90;;;6.78;;
66139;SDS011;52945;51.908;8.364;2023-05-23T03:16:45;13.05;;;6.18;;
66139;SDS011;52945;51.908;8.364;2023-05-23T03:19:46;11.15;;;6.53;;
66139;SDS011;52945;51.908;8.364;2023-05-23T03:22:46;11.65;;;6.40;;
66139;SDS011;52945;51.908;8.364;2023-05-23T03:25:47;13.43;;;6.03;;
66139;SDS011;52945;51.908;8.364;2023-05-23T03:28:48;11.68;;;6.47;;
66139;SDS011;52945;51.908;8.364;2023-05-23T03:31:50;11.35;;;6.53;;
66139;SDS011;52945;51.908;8.364;2023-05-23T03:34:50;11.70;;;6.22;;
66139;SDS011;52945;51.908;8.364;2023-05-23T03:37:51;10.00;;;5.90;;
66139;SDS011;52945;51.908;8.364;2023-05-23T03:40:52;12.57;;;6.75;;
66139;SDS011;52945;51.908;8.364;2023-05-23T03:43:53;11.90;;;5.85;;
66139;SDS011;52945;51.908;8.364;2023-05-23T03:46:53;12.30;;;6.43;;
66139;SDS011;52945;51.908;8.364;2023-05-23T03:49:54;12.90;;;6.43;;
66139;SDS011;52945;51.908;8.364;2023-05-23T03:52:54;12.07;;;6.32;;
66139;SDS011;52945;51.908;8.364;2023-05-23T03:55:55;12.45;;;6.72;;
66139;SDS011;52945;51.908;8.364;2023-05-23T03:58:55;13.68;;;6.38;;
66139;SDS011;52945;51.908;8.364;2023-05-23T04:01:56;11.48;;;5.95;;
66139;SDS011;52945;51.908;8.364;2023-05-23T04:04:57;12.85;;;6.38;;
66139;SDS011;52945;51.908;8.364;2023-05-23T04:07:59;12.93;;;7.05;;
66139;SDS011;52945;51.908;8.364;2023-05-23T04:11:02;14.30;;;6.63;;
66139;SDS011;52945;51.908;8.364;2023-05-23T04:14:03;12.43;;;6.75;;
66139;SDS011;52945;51.908;8.364;2023-05-23T04:17:04;13.45;;;7.10;;
66139;SDS011;52945;51.908;8.364;2023-05-23T04:20:08;15.00;;;7.18;;
66139;SDS011;52945;51.908;8.364;2023-05-23T04:23:09;16.15;;;7.38;;
66139;SDS011;52945;51.908;8.364;2023-05-23T04:26:10;15.80;;;7.63;;
66139;SDS011;52945;51.908;8.364;2023-05-23T04:29:12;15.98;;;7.35;;
66139;SDS011;52945;51.908;8.364;2023-05-23T04:32:12;15.45;;;7.47;;
66139;SDS011;52945;51.908;8.364;2023-05-23T04:38:14;17.10;;;8.07;;
66139;SDS011;52945;51.908;8.364;2023-05-23T04:41:14;17.98;;;8.60;;
66139;SDS011;52945;51.908;8.364;2023-05-23T04:44:15;21.75;;;9.25;;
66139;SDS011;52945;51.908;8.364;2023-05-23T04:47:17;19.45;;;9.25;;
66139;SDS011;52945;51.908;8.364;2023-05-23T04:53:21;16.27;;;7.85;;
66139;SDS011;52945;51.908;8.364;2023-05-23T04:56:22;17.35;;;8.65;;
66139;SDS011;52945;51.908;8.364;2023-05-23T04:59:27;16.95;;;8.68;;
66139;SDS011;52945;51.908;8.364;2023-05-23T05:02:27;14.60;;;8.25;;
66139;SDS011;52945;51.908;8.364;2023-05-23T05:05:34;17.00;;;7.50;;
66139;SDS011;52945;51.908;8.364;2023-05-23T05:08:34;19.67;;;7.90;;
66139;SDS011;52945;51.908;8.364;2023-05-23T05:11:35;15.68;;;8.18;;
66139;SDS011;52945;51.908;8.364;2023-05-23T05:14:36;15.35;;;8.25;;
66139;SDS011;52945;51.908;8.364;2023-05-23T05:17:36;14.52;;;8.38;;
66139;SDS011;52945;51.908;8.364;2023-05-23T05:20:37;16.60;;;8.30;;
66139;SDS011;52945;51.908;8.364;2023-05-23T05:23:38;14.88;;;8.13;;
66139;SDS011;52945;51.908;8.364;2023-05-23T05:26:39;14.73;;;7.65;;
66139;SDS011;52945;51.908;8.364;2023-05-23T05:29:39;14.68;;;7.60;;
66139;SDS011;52945;51.908;8.364;2023-05-23T05:32:41;18.85;;;8.13;;
66139;SDS011;52945;51.908;8.364;2023-05-23T05:35:45;14.35;;;7.40;;
66139;SDS011;52945;51.908;8.364;2023-05-23T05:38:45;17.60;;;7.90;;
66139;SDS011;52945;51.908;8.364;2023-05-23T05:41:46;20.55;;;8.38;;
66139;SDS011;52945;51.908;8.364;2023-05-23T05:44:47;18.52;;;8.05;;
66139;SDS011;52945;51.908;8.364;2023-05-23T05:47:48;16.02;;;7.97;;
66139;SDS011;52945;51.908;8.364;2023-05-23T05:50:48;16.05;;;7.75;;
66139;SDS011;52945;51.908;8.364;2023-05-23T05:53:49;15.85;;;8.05;;
66139;SDS011;52945;51.908;8.364;2023-05-23T05:56:49;15.68;;;8.40;;
66139;SDS011;52945;51.908;8.364;2023-05-23T05:59:50;20.77;;;8.93;;
66139;SDS011;52945;51.908;8.364;2023-05-23T06:02:51;24.15;;;9.70;;
66139;SDS011;52945;51.908;8.364;2023-05-23T06:05:56;17.88;;;9.43;;
66139;SDS011;52945;51.908;8.364;2023-05-23T06:08:56;18.83;;;8.20;;
66139;SDS011;52945;51.908;8.364;2023-05-23T06:11:58;18.00;;;8.80;;
66139;SDS011;52945;51.908;8.364;2023-05-23T06:14:59;16.02;;;9.15;;
66139;SDS011;52945;51.908;8.364;2023-05-23T06:17:59;17.38;;;8.93;;
66139;SDS011;52945;51.908;8.364;2023-05-23T06:21:00;17.70;;;8.90;;
66139;SDS011;52945;51.908;8.364;2023-05-23T06:24:01;25.30;;;10.48;;
66139;SDS011;52945;51.908;8.364;2023-05-23T06:27:02;21.02;;;9.35;;
66139;SDS011;52945;51.908;8.364;2023-05-23T06:30:06;19.13;;;9.20;;
66139;SDS011;52945;51.908;8.364;2023-05-23T06:33:07;20.77;;;9.43;;
66139;SDS011;52945;51.908;8.364;2023-05-23T06:36:07;16.98;;;8.60;;
66139;SDS011;52945;51.908;8.364;2023-05-23T06:39:08;20.23;;;9.73;;
66139;SDS011;52945;51.908;8.364;2023-05-23T06:42:09;19.45;;;8.38;;
66139;SDS011;52945;51.908;8.364;2023-05-23T06:45:09;15.88;;;7.57;;
66139;SDS011;52945;51.908;8.364;2023-05-23T06:48:10;18.67;;;8.23;;
66139;SDS011;52945;51.908;8.364;2023-05-23T06:51:11;15.75;;;7.50;;
66139;SDS011;52945;51.908;8.364;2023-05-23T06:54:12;16.75;;;7.40;;
66139;SDS011;52945;51.908;8.364;2023-05-23T06:57:12;15.90;;;7.20;;
66139;SDS011;52945;51.908;8.364;2023-05-23T07:00:13;12.32;;;5.78;;
66139;SDS011;52945;51.908;8.364;2023-05-23T07:03:14;14.85;;;6.60;;
66139;SDS011;52945;51.908;8.364;2023-05-23T07:06:15;17.98;;;6.05;;
66139;SDS011;52945;51.908;8.364;2023-05-23T07:09:16;13.85;;;5.97;;
66139;SDS011;52945;51.908;8.364;2023-05-23T07:12:17;10.52;;;4.97;;
66139;SDS011;52945;51.908;8.364;2023-05-23T07:15:18;12.20;;;5.03;;
66139;SDS011;52945;51.908;8.364;2023-05-23T07:18:19;9.77;;;4.55;;
66139;SDS011;52945;51.908;8.364;2023-05-23T07:21:20;8.68;;;4.65;;
66139;SDS011;52945;51.908;8.364;2023-05-23T07:24:20;12.48;;;4.53;;
66139;SDS011;52945;51.908;8.364;2023-05-23T07:27:21;8.85;;;4.45;;
66139;SDS011;52945;51.908;8.364;2023-05-23T07:30:21;8.90;;;3.80;;
66139;SDS011;52945;51.908;8.364;2023-05-23T07:33:22;9.70;;;3.85;;
66139;SDS011;52945;51.908;8.364;2023-05-23T07:36:23;6.10;;;3.05;;
66139;SDS011;52945;51.908;8.364;2023-05-23T07:39:24;5.55;;;2.60;;
66139;SDS011;52945;51.908;8.364;2023-05-23T07:42:27;5.00;;;2.63;;
66139;SDS011;52945;51.908;8.364;2023-05-23T07:45:27;3.38;;;2.10;;
66139;SDS011;52945;51.908;8.364;2023-05-23T07:48:28;4.32;;;2.25;;
66139;SDS011;52945;51.908;8.364;2023-05-23T07:51:29;3.15;;;1.98;;
66139;SDS011;52945;51.908;8.364;2023-05-23T07:54:29;5.28;;;2.42;;
66139;SDS011;52945;51.908;8.364;2023-05-23T07:57:30;2.22;;;1.83;;
66139;SDS011;52945;51.908;8.364;2023-05-23T08:00:30;3.78;;;1.52;;
66139;SDS011;52945;51.908;8.364;2023-05-23T08:03:31;3.78;;;1.77;;
66139;SDS011;52945;51.908;8.364;2023-05-23T08:06:32;2.15;;;1.52;;
66139;SDS011;52945;51.908;8.364;2023-05-23T08:09:32;1.10;;;1.00;;
66139;SDS011;52945;51.908;8.364;2023-05-23T08:12:33;1.80;;;1.35;;
66139;SDS011;52945;51.908;8.364;2023-05-23T08:15:33;3.03;;;1.52;;
66139;SDS011;52945;51.908;8.364;2023-05-23T08:18:34;2.55;;;1.70;;
66139;SDS011;52945;51.908;8.364;2023-05-23T08:21:35;2.60;;;1.88;;
66139;SDS011;52945;51.908;8.364;2023-05-23T08:24:35;3.30;;;2.22;;
66139;SDS011;52945;51.908;8.364;2023-05-23T08:27:36;3.28;;;1.90;;
66139;SDS011;52945;51.908;8.364;2023-05-23T08:30:37;4.13;;;1.90;;
66139;SDS011;52945;51.908;8.364;2023-05-23T08:33:37;2.20;;;1.80;;
66139;SDS011;52945;51.908;8.364;2023-05-23T08:36:38;3.83;;;1.98;;
66139;SDS011;52945;51.908;8.364;2023-05-23T08:39:39;4.35;;;1.95;;
66139;SDS011;52945;51.908;8.364;2023-05-23T08:42:40;3.72;;;1.85;;
66139;SDS011;52945;51.908;8.364;2023-05-23T08:45:40;6.20;;;2.22;;
66139;SDS011;52945;51.908;8.364;2023-05-23T08:51:43;5.15;;;2.00;;
66139;SDS011;52945;51.908;8.364;2023-05-23T08:57:45;2.97;;;1.90;;
66139;SDS011;52945;51.908;8.364;2023-05-23T09:00:46;3.42;;;1.80;;
66139;SDS011;52945;51.908;8.364;2023-05-23T09:03:47;4.00;;;1.98;;
66139;SDS011;52945;51.908;8.364;2023-05-23T09:06:49;4.80;;;2.22;;
66139;SDS011;52945;51.908;8.364;2023-05-23T09:09:51;5.18;;;2.13;;
66139;SDS011;52945;51.908;8.364;2023-05-23T09:12:52;2.42;;;1.75;;
66139;SDS011;52945;51.908;8.364;2023-05-23T09:15:56;4.15;;;2.25;;
66139;SDS011;52945;51.908;8.364;2023-05-23T09:19:10;4.18;;;1.90;;
66139;SDS011;52945;51.908;8.364;2023-05-23T09:22:12;3.75;;;1.88;;
66139;SDS011;52945;51.908;8.364;2023-05-23T09:25:12;4.72;;;2.13;;
66139;SDS011;52945;51.908;8.364;2023-05-23T09:28:13;5.05;;;1.90;;
66139;SDS011;52945;51.908;8.364;2023-05-23T09:31:14;4.05;;;1.92;;
66139;SDS011;52945;51.908;8.364;2023-05-23T09:34:15;2.38;;;1.67;;
66139;SDS011;52945;51.908;8.364;2023-05-23T09:37:15;3.10;;;2.00;;
66139;SDS011;52945;51.908;8.364;2023-05-23T09:40:18;3.78;;;2.30;;
66139;SDS011;52945;51.908;8.364;2023-05-23T09:43:18;8.55;;;3.10;;
66139;SDS011;52945;51.908;8.364;2023-05-23T09:46:21;8.75;;;2.85;;
66139;SDS011;52945;51.908;8.364;2023-05-23T09:49:22;8.02;;;3.00;;
66139;SDS011;52945;51.908;8.364;2023-05-23T09:52:22;11.07;;;3.78;;
66139;SDS011;52945;51.908;8.364;2023-05-23T09:55:23;9.65;;;3.58;;
66139;SDS011;52945;51.908;8.364;2023-05-23T09:58:23;7.55;;;3.22;;
66139;SDS011;52945;51.908;8.364;2023-05-23T10:01:27;10.50;;;3.70;;
66139;SDS011;52945;51.908;8.364;2023-05-23T10:04:30;7.72;;;3.28;;
66139;SDS011;52945;51.908;8.364;2023-05-23T10:07:34;7.45;;;3.05;;
66139;SDS011;52945;51.908;8.364;2023-05-23T10:10:43;7.78;;;3.03;;
66139;SDS011;52945;51.908;8.364;2023-05-23T10:13:49;10.20;;;3.60;;
66139;SDS011;52945;51.908;8.364;2023-05-23T10:17:02;7.97;;;3.22;;
66139;SDS011;52945;51.908;8.364;2023-05-23T10:20:09;4.60;;;2.80;;
66139;SDS011;52945;51.908;8.364;2023-05-23T10:23:11;6.45;;;2.78;;
66139;SDS011;52945;51.908;8.364;2023-05-23T10:26:12;7.32;;;2.88;;
66139;SDS011;52945;51.908;8.364;2023-05-23T10:29:13;10.63;;;3.28;;
66139;SDS011;52945;51.908;8.364;2023-05-23T10:32:14;8.68;;;3.50;;
66139;SDS011;52945;51.908;8.364;2023-05-23T10:38:33;7.25;;;3.55;;
66139;SDS011;52945;51.908;8.364;2023-05-23T10:41:43;7.18;;;3.70;;
66139;SDS011;52945;51.908;8.364;2023-05-23T10:44:50;8.20;;;3.35;;
66139;SDS011;52945;51.908;8.364;2023-05-23T10:47:51;9.00;;;3.65;;
66139;SDS011;52945;51.908;8.364;2023-05-23T10:54:09;7.30;;;3.13;;
66139;SDS011;52945;51.908;8.364;2023-05-23T10:57:15;6.05;;;2.72;;
66139;SDS011;52945;51.908;8.364;2023-05-23T11:00:17;6.60;;;2.63;;
66139;SDS011;52945;51.908;8.364;2023-05-23T11:06:36;7.35;;;3.00;;
66139;SDS011;52945;51.908;8.364;2023-05-23T11:09:37;5.13;;;2.35;;
66139;SDS011;52945;51.908;8.364;2023-05-23T11:13:08;9.00;;;2.90;;
66139;SDS011;52945;51.908;8.364;2023-05-23T11:19:30;6.95;;;3.35;;
66139;SDS011;52945;51.908;8.364;2023-05-23T11:22:31;5.65;;;2.78;;
66139;SDS011;52945;51.908;8.364;2023-05-23T11:25:42;6.78;;;3.00;;
66139;SDS011;52945;51.908;8.364;2023-05-23T11:28:56;5.85;;;2.80;;
66139;SDS011;52945;51.908;8.364;2023-05-23T11:31:58;8.23;;;3.15;;
66139;SDS011;52945;51.908;8.364;2023-05-23T11:34:59;9.65;;;3.05;;
66139;SDS011;52945;51.908;8.364;2023-05-23T11:38:01;8.30;;;2.67;;
66139;SDS011;52945;51.908;8.364;2023-05-23T11:41:03;4.85;;;2.47;;
66139;SDS011;52945;51.908;8.364;2023-05-23T11:44:11;9.48;;;2.65;;
66139;SDS011;52945;51.908;8.364;2023-05-23T11:47:12;10.82;;;2.65;;
66139;SDS011;52945;51.908;8.364;2023-05-23T11:50:13;4.97;;;2.08;;
66139;SDS011;52945;51.908;8.364;2023-05-23T11:53:15;5.82;;;2.50;;
66139;SDS011;52945;51.908;8.364;2023-05-23T11:56:18;8.43;;;1.98;;
66139;SDS011;52945;51.908;8.364;2023-05-23T11:59:18;6.72;;;2.20;;
66139;SDS011;52945;51.908;8.364;2023-05-23T12:02:20;6.20;;;2.35;;
66139;SDS011;52945;51.908;8.364;2023-05-23T12:05:21;7.30;;;2.55;;
66139;SDS011;52945;51.908;8.364;2023-05-23T12:08:22;13.40;;;2.28;;
66139;SDS011;52945;51.908;8.364;2023-05-23T12:11:24;4.68;;;2.08;;
66139;SDS011;52945;51.908;8.364;2023-05-23T12:14:27;4.90;;;2.22;;
66139;SDS011;52945;51.908;8.364;2023-05-23T12:17:28;3.95;;;2.10;;
66139;SDS011;52945;51.908;8.364;2023-05-23T12:20:28;3.63;;;2.00;;
66139;SDS011;52945;51.908;8.364;2023-05-23T12:23:34;6.57;;;2.53;;
66139;SDS011;52945;51.908;8.364;2023-05-23T12:26:44;7.15;;;2.35;;
66139;SDS011;52945;51.908;8.364;2023-05-23T12:29:49;7.07;;;2.53;;
66139;SDS011;52945;51.908;8.364;2023-05-23T12:32:52;6.80;;;2.35;;
66139;SDS011;52945;51.908;8.364;2023-05-23T12:35:53;6.55;;;2.50;;
66139;SDS011;52945;51.908;8.364;2023-05-23T12:38:54;8.60;;;2.53;;
66139;SDS011;52945;51.908;8.364;2023-05-23T12:42:07;6.88;;;2.78;;
66139;SDS011;52945;51.908;8.364;2023-05-23T12:48:12;7.28;;;2.50;;
66139;SDS011;52945;51.908;8.364;2023-05-23T12:51:13;6.38;;;2.50;;
66139;SDS011;52945;51.908;8.364;2023-05-23T12:54:14;7.65;;;2.67;;
66139;SDS011;52945;51.908;8.364;2023-05-23T12:57:14;5.90;;;2.63;;
66139;SDS011;52945;51.908;8.364;2023-05-23T13:00:15;9.88;;;2.83;;
66139;SDS011;52945;51.908;8.364;2023-05-23T13:06:17;9.85;;;2.40;;
66139;SDS011;52945;51.908;8.364;2023-05-23T13:09:17;10.70;;;2.42;;
66139;SDS011;52945;51.908;8.364;2023-05-23T13:12:18;5.13;;;2.35;;
66139;SDS011;52945;51.908;8.364;2023-05-23T13:15:19;8.70;;;2.90;;
66139;SDS011;52945;51.908;8.364;2023-05-23T13:18:20;5.78;;;2.30;;
66139;SDS011;52945;51.908;8.364;2023-05-23T13:21:21;7.45;;;2.70;;
66139;SDS011;52945;51.908;8.364;2023-05-23T13:24:21;5.93;;;2.38;;
66139;SDS011;52945;51.908;8.364;2023-05-23T13:30:23;7.13;;;2.65;;
66139;SDS011;52945;51.908;8.364;2023-05-23T13:33:23;6.40;;;2.47;;
66139;SDS011;52945;51.908;8.364;2023-05-23T13:36:24;6.78;;;2.60;;
66139;SDS011;52945;51.908;8.364;2023-05-23T13:39:25;7.43;;;2.67;;
66139;SDS011;52945;51.908;8.364;2023-05-23T13:42:25;5.43;;;2.30;;
66139;SDS011;52945;51.908;8.364;2023-05-23T13:45:26;5.35;;;2.60;;
66139;SDS011;52945;51.908;8.364;2023-05-23T13:51:27;6.63;;;2.38;;
66139;SDS011;52945;51.908;8.364;2023-05-23T13:54:28;7.45;;;2.05;;
66139;SDS011;52945;51.908;8.364;2023-05-23T14:00:29;10.35;;;2.45;;
66139;SDS011;52945;51.908;8.364;2023-05-23T14:06:30;10.32;;;3.00;;
66139;SDS011;52945;51.908;8.364;2023-05-23T14:09:31;11.98;;;3.00;;
66139;SDS011;52945;51.908;8.364;2023-05-23T14:12:32;7.05;;;2.15;;
66139;SDS011;52945;51.908;8.364;2023-05-23T14:15:33;6.80;;;2.28;;
66139;SDS011;52945;51.908;8.364;2023-05-23T14:18:33;4.38;;;2.08;;
66139;SDS011;52945;51.908;8.364;2023-05-23T14:21:34;7.32;;;2.42;;
66139;SDS011;52945;51.908;8.364;2023-05-23T14:27:35;6.05;;;2.15;;
66139;SDS011;52945;51.908;8.364;2023-05-23T14:33:36;9.05;;;2.28;;
66139;SDS011;52945;51.908;8.364;2023-05-23T14:36:37;8.38;;;2.33;;
66139;SDS011;52945;51.908;8.364;2023-05-23T14:39:38;8.20;;;3.83;;
66139;SDS011;52945;51.908;8.364;2023-05-23T14:42:38;5.03;;;1.90;;
66139;SDS011;52945;51.908;8.364;2023-05-23T14:45:39;7.85;;;2.45;;
66139;SDS011;52945;51.908;8.364;2023-05-23T14:51:41;5.43;;;1.98;;
66139;SDS011;52945;51.908;8.364;2023-05-23T14:54:42;3.55;;;2.03;;
66139;SDS011;52945;51.908;8.364;2023-05-23T14:57:42;5.53;;;2.33;;
66139;SDS011;52945;51.908;8.364;2023-05-23T15:00:43;4.93;;;1.95;;
66139;SDS011;52945;51.908;8.364;2023-05-23T15:03:46;4.72;;;1.80;;
66139;SDS011;52945;51.908;8.364;2023-05-23T15:06:47;6.72;;;2.78;;
66139;SDS011;52945;51.908;8.364;2023-05-23T15:09:49;4.13;;;1.85;;
66139;SDS011;52945;51.908;8.364;2023-05-23T15:12:50;7.47;;;2.15;;
66139;SDS011;52945;51.908;8.364;2023-05-23T15:15:51;8.60;;;2.35;;
66139;SDS011;52945;51.908;8.364;2023-05-23T15:18:53;9.13;;;1.90;;
66139;SDS011;52945;51.908;8.364;2023-05-23T15:21:53;4.38;;;1.65;;
66139;SDS011;52945;51.908;8.364;2023-05-23T15:24:54;7.75;;;2.40;;
66139;SDS011;52945;51.908;8.364;2023-05-23T15:27:54;6.03;;;2.20;;
66139;SDS011;52945;51.908;8.364;2023-05-23T15:30:55;4.55;;;1.73;;
66139;SDS011;52945;51.908;8.364;2023-05-23T15:33:57;5.25;;;2.10;;
66139;SDS011;52945;51.908;8.364;2023-05-23T15:36:58;3.80;;;1.60;;
66139;SDS011;52945;51.908;8.364;2023-05-23T15:39:59;6.68;;;2.42;;
66139;SDS011;52945;51.908;8.364;2023-05-23T15:42:59;5.00;;;2.10;;
66139;SDS011;52945;51.908;8.364;2023-05-23T15:46:00;3.65;;;1.80;;
66139;SDS011;52945;51.908;8.364;2023-05-23T15:52:01;7.53;;;2.20;;
66139;SDS011;52945;51.908;8.364;2023-05-23T15:58:04;5.97;;;2.15;;
66139;SDS011;52945;51.908;8.364;2023-05-23T16:04:05;7.38;;;2.20;;
66139;SDS011;52945;51.908;8.364;2023-05-23T16:10:06;3.65;;;1.80;;
66139;SDS011;52945;51.908;8.364;2023-05-23T16:13:07;5.03;;;1.90;;
66139;SDS011;52945;51.908;8.364;2023-05-23T16:16:08;5.07;;;1.65;;
66139;SDS011;52945;51.908;8.364;2023-05-23T16:22:09;5.07;;;1.83;;
66139;SDS011;52945;51.908;8.364;2023-05-23T16:25:10;6.25;;;2.05;;
66139;SDS011;52945;51.908;8.364;2023-05-23T16:31:12;3.78;;;1.88;;
66139;SDS011;52945;51.908;8.364;2023-05-23T16:34:14;5.97;;;1.88;;
66139;SDS011;52945;51.908;8.364;2023-05-23T16:40:15;6.57;;;1.65;;
66139;SDS011;52945;51.908;8.364;2023-05-23T16:46:16;5.18;;;1.35;;
66139;SDS011;52945;51.908;8.364;2023-05-23T16:49:16;7.40;;;1.77;;
66139;SDS011;52945;51.908;8.364;2023-05-23T16:55:17;3.13;;;1.45;;
66139;SDS011;52945;51.908;8.364;2023-05-23T17:01:18;6.22;;;2.15;;
66139;SDS011;52945;51.908;8.364;2023-05-23T17:07:20;1.52;;;1.38;;
66139;SDS011;52945;51.908;8.364;2023-05-23T17:13:21;6.65;;;1.80;;
66139;SDS011;52945;51.908;8.364;2023-05-23T17:16:22;4.10;;;1.52;;
66139;SDS011;52945;51.908;8.364;2023-05-23T17:19:23;5.13;;;2.17;;
66139;SDS011;52945;51.908;8.364;2023-05-23T17:22:24;5.35;;;2.28;;
66139;SDS011;52945;51.908;8.364;2023-05-23T17:25:25;6.22;;;2.00;;
66139;SDS011;52945;51.908;8.364;2023-05-23T17:31:26;6.38;;;1.48;;
66139;SDS011;52945;51.908;8.364;2023-05-23T17:34:26;3.30;;;2.13;;
66139;SDS011;52945;51.908;8.364;2023-05-23T17:37:27;5.47;;;1.60;;
66139;SDS011;52945;51.908;8.364;2023-05-23T17:40:28;6.90;;;1.60;;
66139;SDS011;52945;51.908;8.364;2023-05-23T17:43:28;7.72;;;2.17;;
66139;SDS011;52945;51.908;8.364;2023-05-23T17:46:29;3.28;;;1.30;;
66139;SDS011;52945;51.908;8.364;2023-05-23T17:49:30;3.88;;;1.67;;
66139;SDS011;52945;51.908;8.364;2023-05-23T17:52:30;3.83;;;1.42;;
66139;SDS011;52945;51.908;8.364;2023-05-23T17:55:31;4.25;;;1.98;;
66139;SDS011;52945;51.908;8.364;2023-05-23T17:58:32;4.50;;;1.50;;
66139;SDS011;52945;51.908;8.364;2023-05-23T18:01:32;7.55;;;1.60;;
66139;SDS011;52945;51.908;8.364;2023-05-23T18:04:33;5.13;;;2.25;;
66139;SDS011;52945;51.908;8.364;2023-05-23T18:07:34;3.60;;;1.23;;
66139;SDS011;52945;51.908;8.364;2023-05-23T18:10:35;4.82;;;1.80;;
66139;SDS011;52945;51.908;8.364;2023-05-23T18:13:36;4.30;;;1.55;;
66139;SDS011;52945;51.908;8.364;2023-05-23T18:16:36;4.13;;;1.75;;
66139;SDS011;52945;51.908;8.364;2023-05-23T18:19:37;3.90;;;1.40;;
66139;SDS011;52945;51.908;8.364;2023-05-23T18:22:37;7.72;;;1.75;;
66139;SDS011;52945;51.908;8.364;2023-05-23T18:25:40;7.82;;;1.98;;
66139;SDS011;52945;51.908;8.364;2023-05-23T18:28:40;5.85;;;1.50;;
66139;SDS011;52945;51.908;8.364;2023-05-23T18:31:43;4.82;;;2.22;;
66139;SDS011;52945;51.908;8.364;2023-05-23T18:34:43;3.70;;;1.40;;
66139;SDS011;52945;51.908;8.364;2023-05-23T18:37:44;4.32;;;1.58;;
66139;SDS011;52945;51.908;8.364;2023-05-23T18:40:45;3.78;;;1.50;;
66139;SDS011;52945;51.908;8.364;2023-05-23T18:43:46;6.75;;;2.00;;
66139;SDS011;52945;51.908;8.364;2023-05-23T18:46:48;3.63;;;1.30;;
66139;SDS011;52945;51.908;8.364;2023-05-23T18:49:48;4.25;;;1.60;;
66139;SDS011;52945;51.908;8.364;2023-05-23T18:52:49;5.03;;;2.10;;
66139;SDS011;52945;51.908;8.364;2023-05-23T18:55:50;4.20;;;1.38;;
66139;SDS011;52945;51.908;8.364;2023-05-23T18:58:50;6.75;;;1.83;;
66139;SDS011;52945;51.908;8.364;2023-05-23T19:01:51;4.88;;;1.58;;
66139;SDS011;52945;51.908;8.364;2023-05-23T19:04:52;5.57;;;1.42;;
66139;SDS011;52945;51.908;8.364;2023-05-23T19:07:52;5.05;;;1.50;;
66139;SDS011;52945;51.908;8.364;2023-05-23T19:10:53;5.80;;;1.65;;
66139;SDS011;52945;51.908;8.364;2023-05-23T19:13:53;6.35;;;1.52;;
66139;SDS011;52945;51.908;8.364;2023-05-23T19:16:54;5.13;;;1.30;;
66139;SDS011;52945;51.908;8.364;2023-05-23T19:19:54;3.05;;;1.38;;
66139;SDS011;52945;51.908;8.364;2023-05-23T19:22:55;4.53;;;1.60;;
66139;SDS011;52945;51.908;8.364;2023-05-23T19:25:55;2.92;;;1.70;;
66139;SDS011;52945;51.908;8.364;2023-05-23T19:28:56;3.95;;;1.58;;
66139;SDS011;52945;51.908;8.364;2023-05-23T19:31:57;5.18;;;1.65;;
66139;SDS011;52945;51.908;8.364;2023-05-23T19:34:57;7.18;;;2.15;;
66139;SDS011;52945;51.908;8.364;2023-05-23T19:37:58;4.95;;;1.80;;
66139;SDS011;52945;51.908;8.364;2023-05-23T19:40:59;4.20;;;1.00;;
66139;SDS011;52945;51.908;8.364;2023-05-23T19:44:00;5.20;;;1.63;;
66139;SDS011;52945;51.908;8.364;2023-05-23T19:50:03;6.60;;;1.67;;
66139;SDS011;52945;51.908;8.364;2023-05-23T19:53:06;5.38;;;1.70;;
66139;SDS011;52945;51.908;8.364;2023-05-23T19:56:06;5.18;;;1.55;;
66139;SDS011;52945;51.908;8.364;2023-05-23T19:59:07;6.80;;;2.03;;
66139;SDS011;52945;51.908;8.364;2023-05-23T20:02:08;4.80;;;1.95;;